sensor_id;sensor_type;location;lat;lon;timestamp;P1;durP1;ratioP1;P2;durP2;ratioP2
13941;SDS011;7043;51.630;7.254;2024-03-02T00:02:12;2.47;;;2.27;;
13941;SDS011;7043;51.630;7.254;2024-03-02T00:04:39;3.57;;;2.70;;
13941;SDS011;7043;51.630;7.254;2024-03-02T00:07:05;3.60;;;2.47;;
13941;SDS011;7043;51.630;7.254;2024-03-02T00:09:32;2.90;;;2.60;;
13941;SDS011;7043;51.630;7.254;2024-03-02T00:11:59;3.73;;;2.50;;
13941;SDS011;7043;51.630;7.254;2024-03-02T00:14:25;2.93;;;2.57;;
13941;SDS011;7043;51.630;7.254;2024-03-02T00:16:55;2.60;;;2.40;;
13941;SDS011;7043;51.630;7.254;2024-03-02T00:19:21;2.90;;;2.40;;
13941;SDS011;7043;51.630;7.254;2024-03-02T00:21:48;2.55;;;2.33;;
13941;SDS011;7043;51.630;7.254;2024-03-02T00:24:30;2.97;;;2.43;;
13941;SDS011;7043;51.630;7.254;2024-03-02T00:26:58;3.10;;;2.60;;
13941;SDS011;7043;51.630;7.254;2024-03-02T00:29:23;3.03;;;2.70;;
13941;SDS011;7043;51.630;7.254;2024-03-02T00:31:50;2.90;;;2.40;;
13941;SDS011;7043;51.630;7.254;2024-03-02T00:34:16;3.50;;;2.87;;
13941;SDS011;7043;51.630;7.254;2024-03-02T00:36:43;3.00;;;2.63;;
13941;SDS011;7043;51.630;7.254;2024-03-02T00:39:10;2.53;;;2.33;;
13941;SDS011;7043;51.630;7.254;2024-03-02T00:41:38;3.20;;;2.67;;
13941;SDS011;7043;51.630;7.254;2024-03-02T00:44:07;3.93;;;2.80;;
13941;SDS011;7043;51.630;7.254;2024-03-02T00:46:36;3.67;;;2.80;;
13941;SDS011;7043;51.630;7.254;2024-03-02T00:49:03;2.60;;;2.40;;
13941;SDS011;7043;51.630;7.254;2024-03-02T00:51:30;2.50;;;2.13;;
13941;SDS011;7043;51.630;7.254;2024-03-02T00:54:00;3.73;;;2.90;;
13941;SDS011;7043;51.630;7.254;2024-03-02T00:56:29;2.57;;;2.17;;
13941;SDS011;7043;51.630;7.254;2024-03-02T00:58:55;2.73;;;2.33;;
13941;SDS011;7043;51.630;7.254;2024-03-02T01:01:22;2.70;;;2.50;;
13941;SDS011;7043;51.630;7.254;2024-03-02T01:03:48;3.03;;;2.10;;
13941;SDS011;7043;51.630;7.254;2024-03-02T01:06:14;2.70;;;2.50;;
13941;SDS011;7043;51.630;7.254;2024-03-02T01:08:41;2.47;;;2.27;;
13941;SDS011;7043;51.630;7.254;2024-03-02T01:11:07;3.40;;;2.23;;
13941;SDS011;7043;51.630;7.254;2024-03-02T01:13:33;3.40;;;2.63;;
13941;SDS011;7043;51.630;7.254;2024-03-02T01:16:00;2.83;;;2.17;;
13941;SDS011;7043;51.630;7.254;2024-03-02T01:18:27;3.77;;;2.30;;
13941;SDS011;7043;51.630;7.254;2024-03-02T01:20:53;2.83;;;2.20;;
13941;SDS011;7043;51.630;7.254;2024-03-02T01:23:22;2.50;;;2.20;;
13941;SDS011;7043;51.630;7.254;2024-03-02T01:25:48;2.67;;;2.47;;
13941;SDS011;7043;51.630;7.254;2024-03-02T01:28:14;2.90;;;2.60;;
13941;SDS011;7043;51.630;7.254;2024-03-02T01:30:41;2.50;;;1.90;;
13941;SDS011;7043;51.630;7.254;2024-03-02T01:33:07;2.93;;;2.03;;
13941;SDS011;7043;51.630;7.254;2024-03-02T01:35:33;2.63;;;2.20;;
13941;SDS011;7043;51.630;7.254;2024-03-02T01:38:02;2.57;;;2.10;;
13941;SDS011;7043;51.630;7.254;2024-03-02T01:40:28;2.90;;;2.40;;
13941;SDS011;7043;51.630;7.254;2024-03-02T01:42:54;2.43;;;2.20;;
13941;SDS011;7043;51.630;7.254;2024-03-02T01:45:23;4.40;;;2.27;;
13941;SDS011;7043;51.630;7.254;2024-03-02T01:47:49;3.23;;;2.13;;
13941;SDS011;7043;51.630;7.254;2024-03-02T01:50:15;2.30;;;2.03;;
13941;SDS011;7043;51.630;7.254;2024-03-02T01:52:42;2.27;;;2.00;;
13941;SDS011;7043;51.630;7.254;2024-03-02T01:55:09;2.23;;;1.70;;
13941;SDS011;7043;51.630;7.254;2024-03-02T01:57:36;3.33;;;2.10;;
13941;SDS011;7043;51.630;7.254;2024-03-02T02:00:02;3.07;;;2.13;;
13941;SDS011;7043;51.630;7.254;2024-03-02T02:02:28;2.77;;;2.10;;
13941;SDS011;7043;51.630;7.254;2024-03-02T02:04:54;2.97;;;1.90;;
13941;SDS011;7043;51.630;7.254;2024-03-02T02:07:20;2.73;;;2.10;;
13941;SDS011;7043;51.630;7.254;2024-03-02T02:09:46;2.10;;;1.90;;
13941;SDS011;7043;51.630;7.254;2024-03-02T02:12:12;3.30;;;2.00;;
13941;SDS011;7043;51.630;7.254;2024-03-02T02:14:38;2.20;;;1.70;;
13941;SDS011;7043;51.630;7.254;2024-03-02T02:17:08;1.77;;;1.67;;
13941;SDS011;7043;51.630;7.254;2024-03-02T02:19:34;2.73;;;1.90;;
13941;SDS011;7043;51.630;7.254;2024-03-02T02:22:00;2.57;;;2.00;;
13941;SDS011;7043;51.630;7.254;2024-03-02T02:24:26;2.37;;;1.80;;
13941;SDS011;7043;51.630;7.254;2024-03-02T02:26:51;2.63;;;1.93;;
13941;SDS011;7043;51.630;7.254;2024-03-02T02:29:17;3.33;;;2.00;;
13941;SDS011;7043;51.630;7.254;2024-03-02T02:31:43;2.63;;;2.00;;
13941;SDS011;7043;51.630;7.254;2024-03-02T02:34:09;2.77;;;1.97;;
13941;SDS011;7043;51.630;7.254;2024-03-02T02:36:36;2.70;;;1.80;;
13941;SDS011;7043;51.630;7.254;2024-03-02T02:39:03;3.33;;;2.20;;
13941;SDS011;7043;51.630;7.254;2024-03-02T02:41:30;2.37;;;2.10;;
13941;SDS011;7043;51.630;7.254;2024-03-02T02:43:56;2.87;;;1.90;;
13941;SDS011;7043;51.630;7.254;2024-03-02T02:46:22;2.77;;;1.80;;
13941;SDS011;7043;51.630;7.254;2024-03-02T02:48:48;3.40;;;1.97;;
13941;SDS011;7043;51.630;7.254;2024-03-02T02:51:14;2.47;;;2.10;;
13941;SDS011;7043;51.630;7.254;2024-03-02T02:53:40;2.30;;;1.90;;
13941;SDS011;7043;51.630;7.254;2024-03-02T02:56:06;3.93;;;1.90;;
13941;SDS011;7043;51.630;7.254;2024-03-02T02:58:32;2.67;;;1.90;;
13941;SDS011;7043;51.630;7.254;2024-03-02T03:00:58;3.33;;;1.97;;
13941;SDS011;7043;51.630;7.254;2024-03-02T03:03:24;3.43;;;2.00;;
13941;SDS011;7043;51.630;7.254;2024-03-02T03:05:50;2.47;;;1.53;;
13941;SDS011;7043;51.630;7.254;2024-03-02T03:08:16;2.20;;;1.60;;
13941;SDS011;7043;51.630;7.254;2024-03-02T03:10:42;3.90;;;1.97;;
13941;SDS011;7043;51.630;7.254;2024-03-02T03:13:08;4.10;;;2.10;;
13941;SDS011;7043;51.630;7.254;2024-03-02T03:15:35;2.10;;;1.53;;
13941;SDS011;7043;51.630;7.254;2024-03-02T03:18:04;3.57;;;1.73;;
13941;SDS011;7043;51.630;7.254;2024-03-02T03:20:30;2.50;;;1.67;;
13941;SDS011;7043;51.630;7.254;2024-03-02T03:22:57;2.23;;;1.70;;
13941;SDS011;7043;51.630;7.254;2024-03-02T03:25:22;2.73;;;1.40;;
13941;SDS011;7043;51.630;7.254;2024-03-02T03:27:48;2.57;;;1.33;;
13941;SDS011;7043;51.630;7.254;2024-03-02T03:30:15;2.80;;;1.80;;
13941;SDS011;7043;51.630;7.254;2024-03-02T03:32:41;2.13;;;1.50;;
13941;SDS011;7043;51.630;7.254;2024-03-02T03:35:07;1.73;;;1.17;;
13941;SDS011;7043;51.630;7.254;2024-03-02T03:37:33;1.97;;;1.60;;
13941;SDS011;7043;51.630;7.254;2024-03-02T03:40:00;2.50;;;1.47;;
13941;SDS011;7043;51.630;7.254;2024-03-02T03:42:26;3.17;;;1.47;;
13941;SDS011;7043;51.630;7.254;2024-03-02T03:44:52;2.93;;;1.60;;
13941;SDS011;7043;51.630;7.254;2024-03-02T03:47:18;1.60;;;1.50;;
13941;SDS011;7043;51.630;7.254;2024-03-02T03:49:45;3.10;;;1.50;;
13941;SDS011;7043;51.630;7.254;2024-03-02T03:52:11;1.77;;;1.60;;
13941;SDS011;7043;51.630;7.254;2024-03-02T03:54:37;1.60;;;1.50;;
13941;SDS011;7043;51.630;7.254;2024-03-02T03:57:03;2.20;;;1.43;;
13941;SDS011;7043;51.630;7.254;2024-03-02T03:59:29;2.00;;;1.50;;
13941;SDS011;7043;51.630;7.254;2024-03-02T04:01:55;1.77;;;1.30;;
13941;SDS011;7043;51.630;7.254;2024-03-02T04:04:21;1.87;;;1.30;;
13941;SDS011;7043;51.630;7.254;2024-03-02T04:06:47;1.87;;;1.40;;
13941;SDS011;7043;51.630;7.254;2024-03-02T04:09:13;2.67;;;1.20;;
13941;SDS011;7043;51.630;7.254;2024-03-02T04:11:39;2.90;;;1.43;;
13941;SDS011;7043;51.630;7.254;2024-03-02T04:14:06;1.50;;;1.40;;
13941;SDS011;7043;51.630;7.254;2024-03-02T04:16:32;1.53;;;1.20;;
13941;SDS011;7043;51.630;7.254;2024-03-02T04:18:58;1.97;;;1.33;;
13941;SDS011;7043;51.630;7.254;2024-03-02T04:21:24;1.77;;;1.30;;
13941;SDS011;7043;51.630;7.254;2024-03-02T04:23:50;4.60;;;1.80;;
13941;SDS011;7043;51.630;7.254;2024-03-02T04:26:16;2.63;;;1.40;;
13941;SDS011;7043;51.630;7.254;2024-03-02T04:28:47;3.57;;;1.50;;
13941;SDS011;7043;51.630;7.254;2024-03-02T04:31:13;3.77;;;1.80;;
13941;SDS011;7043;51.630;7.254;2024-03-02T04:33:40;2.50;;;1.77;;
13941;SDS011;7043;51.630;7.254;2024-03-02T04:36:06;2.77;;;1.93;;
13941;SDS011;7043;51.630;7.254;2024-03-02T04:38:34;2.00;;;1.63;;
13941;SDS011;7043;51.630;7.254;2024-03-02T04:41:00;1.90;;;1.70;;
13941;SDS011;7043;51.630;7.254;2024-03-02T04:43:26;2.13;;;1.90;;
13941;SDS011;7043;51.630;7.254;2024-03-02T04:45:52;3.47;;;1.83;;
13941;SDS011;7043;51.630;7.254;2024-03-02T04:48:18;1.73;;;1.63;;
13941;SDS011;7043;51.630;7.254;2024-03-02T04:50:44;2.03;;;1.70;;
13941;SDS011;7043;51.630;7.254;2024-03-02T04:53:10;2.63;;;1.97;;
13941;SDS011;7043;51.630;7.254;2024-03-02T04:55:36;2.20;;;1.50;;
13941;SDS011;7043;51.630;7.254;2024-03-02T04:58:22;1.77;;;1.53;;
13941;SDS011;7043;51.630;7.254;2024-03-02T05:00:48;2.27;;;1.50;;
13941;SDS011;7043;51.630;7.254;2024-03-02T05:03:14;2.30;;;1.23;;
13941;SDS011;7043;51.630;7.254;2024-03-02T05:05:40;1.53;;;1.37;;
13941;SDS011;7043;51.630;7.254;2024-03-02T05:08:06;2.07;;;1.40;;
13941;SDS011;7043;51.630;7.254;2024-03-02T05:10:32;2.00;;;1.50;;
13941;SDS011;7043;51.630;7.254;2024-03-02T05:12:58;3.47;;;1.60;;
13941;SDS011;7043;51.630;7.254;2024-03-02T05:15:24;1.77;;;1.60;;
13941;SDS011;7043;51.630;7.254;2024-03-02T05:17:50;2.53;;;1.40;;
13941;SDS011;7043;51.630;7.254;2024-03-02T05:20:16;3.53;;;1.50;;
13941;SDS011;7043;51.630;7.254;2024-03-02T05:22:43;2.07;;;1.40;;
13941;SDS011;7043;51.630;7.254;2024-03-02T05:25:09;1.50;;;1.30;;
13941;SDS011;7043;51.630;7.254;2024-03-02T05:27:35;1.70;;;1.47;;
13941;SDS011;7043;51.630;7.254;2024-03-02T05:30:01;2.30;;;1.60;;
13941;SDS011;7043;51.630;7.254;2024-03-02T05:32:28;1.50;;;1.20;;
13941;SDS011;7043;51.630;7.254;2024-03-02T05:34:54;2.10;;;1.30;;
13941;SDS011;7043;51.630;7.254;2024-03-02T05:37:20;1.97;;;1.50;;
13941;SDS011;7043;51.630;7.254;2024-03-02T05:39:46;2.83;;;2.13;;
13941;SDS011;7043;51.630;7.254;2024-03-02T05:42:12;4.77;;;3.00;;
13941;SDS011;7043;51.630;7.254;2024-03-02T05:44:38;3.30;;;1.83;;
13941;SDS011;7043;51.630;7.254;2024-03-02T05:47:04;2.60;;;1.47;;
13941;SDS011;7043;51.630;7.254;2024-03-02T05:49:33;2.60;;;1.70;;
13941;SDS011;7043;51.630;7.254;2024-03-02T05:51:59;2.20;;;1.53;;
13941;SDS011;7043;51.630;7.254;2024-03-02T05:54:25;2.30;;;1.30;;
13941;SDS011;7043;51.630;7.254;2024-03-02T05:56:51;1.87;;;1.40;;
13941;SDS011;7043;51.630;7.254;2024-03-02T05:59:17;2.60;;;1.70;;
13941;SDS011;7043;51.630;7.254;2024-03-02T06:01:43;2.27;;;1.70;;
13941;SDS011;7043;51.630;7.254;2024-03-02T06:04:10;2.20;;;1.50;;
13941;SDS011;7043;51.630;7.254;2024-03-02T06:06:36;2.87;;;1.60;;
13941;SDS011;7043;51.630;7.254;2024-03-02T06:09:02;2.53;;;1.67;;
13941;SDS011;7043;51.630;7.254;2024-03-02T06:11:35;2.90;;;1.70;;
13941;SDS011;7043;51.630;7.254;2024-03-02T06:14:02;2.97;;;1.90;;
13941;SDS011;7043;51.630;7.254;2024-03-02T06:16:28;2.27;;;1.93;;
13941;SDS011;7043;51.630;7.254;2024-03-02T06:18:54;2.70;;;2.10;;
13941;SDS011;7043;51.630;7.254;2024-03-02T06:21:22;2.43;;;2.00;;
13941;SDS011;7043;51.630;7.254;2024-03-02T06:23:48;2.97;;;2.10;;
13941;SDS011;7043;51.630;7.254;2024-03-02T06:26:14;3.27;;;2.30;;
13941;SDS011;7043;51.630;7.254;2024-03-02T06:28:40;2.57;;;1.97;;
13941;SDS011;7043;51.630;7.254;2024-03-02T06:31:06;3.03;;;1.77;;
13941;SDS011;7043;51.630;7.254;2024-03-02T06:33:32;3.57;;;2.17;;
13941;SDS011;7043;51.630;7.254;2024-03-02T06:35:58;2.77;;;2.20;;
13941;SDS011;7043;51.630;7.254;2024-03-02T06:38:24;2.70;;;2.47;;
13941;SDS011;7043;51.630;7.254;2024-03-02T06:40:51;2.30;;;2.10;;
13941;SDS011;7043;51.630;7.254;2024-03-02T06:43:17;3.63;;;2.70;;
13941;SDS011;7043;51.630;7.254;2024-03-02T06:45:43;4.00;;;2.83;;
13941;SDS011;7043;51.630;7.254;2024-03-02T06:48:09;4.13;;;3.00;;
13941;SDS011;7043;51.630;7.254;2024-03-02T06:50:35;3.47;;;2.97;;
13941;SDS011;7043;51.630;7.254;2024-03-02T06:53:01;4.60;;;2.80;;
13941;SDS011;7043;51.630;7.254;2024-03-02T06:55:29;3.23;;;2.80;;
13941;SDS011;7043;51.630;7.254;2024-03-02T06:57:55;2.60;;;2.40;;
13941;SDS011;7043;51.630;7.254;2024-03-02T07:00:21;2.73;;;2.47;;
13941;SDS011;7043;51.630;7.254;2024-03-02T07:02:47;3.00;;;2.60;;
13941;SDS011;7043;51.630;7.254;2024-03-02T07:05:13;4.07;;;2.53;;
13941;SDS011;7043;51.630;7.254;2024-03-02T07:07:39;4.57;;;2.97;;
13941;SDS011;7043;51.630;7.254;2024-03-02T07:10:05;5.27;;;3.30;;
13941;SDS011;7043;51.630;7.254;2024-03-02T07:12:32;4.37;;;3.10;;
13941;SDS011;7043;51.630;7.254;2024-03-02T07:14:58;4.70;;;2.73;;
13941;SDS011;7043;51.630;7.254;2024-03-02T07:17:27;4.33;;;3.20;;
13941;SDS011;7043;51.630;7.254;2024-03-02T07:19:53;3.27;;;2.97;;
13941;SDS011;7043;51.630;7.254;2024-03-02T07:22:19;4.13;;;3.70;;
13941;SDS011;7043;51.630;7.254;2024-03-02T07:24:45;4.87;;;3.30;;
13941;SDS011;7043;51.630;7.254;2024-03-02T07:27:11;4.43;;;3.00;;
13941;SDS011;7043;51.630;7.254;2024-03-02T07:29:38;3.60;;;3.10;;
13941;SDS011;7043;51.630;7.254;2024-03-02T07:32:05;4.53;;;3.00;;
13941;SDS011;7043;51.630;7.254;2024-03-02T07:34:31;4.40;;;3.37;;
13941;SDS011;7043;51.630;7.254;2024-03-02T07:36:57;4.07;;;3.03;;
13941;SDS011;7043;51.630;7.254;2024-03-02T07:39:24;5.13;;;3.43;;
13941;SDS011;7043;51.630;7.254;2024-03-02T07:41:50;4.70;;;3.30;;
13941;SDS011;7043;51.630;7.254;2024-03-02T07:44:16;3.80;;;3.07;;
13941;SDS011;7043;51.630;7.254;2024-03-02T07:46:44;4.57;;;3.00;;
13941;SDS011;7043;51.630;7.254;2024-03-02T07:49:20;4.17;;;3.10;;
13941;SDS011;7043;51.630;7.254;2024-03-02T07:51:46;5.73;;;4.37;;
13941;SDS011;7043;51.630;7.254;2024-03-02T07:54:12;11.80;;;9.57;;
13941;SDS011;7043;51.630;7.254;2024-03-02T07:56:38;7.30;;;5.33;;
13941;SDS011;7043;51.630;7.254;2024-03-02T07:59:04;5.67;;;4.70;;
13941;SDS011;7043;51.630;7.254;2024-03-02T08:01:30;5.93;;;4.30;;
13941;SDS011;7043;51.630;7.254;2024-03-02T08:03:57;4.23;;;3.03;;
13941;SDS011;7043;51.630;7.254;2024-03-02T08:06:24;4.43;;;3.47;;
13941;SDS011;7043;51.630;7.254;2024-03-02T08:08:52;4.33;;;3.27;;
13941;SDS011;7043;51.630;7.254;2024-03-02T08:11:18;4.03;;;3.13;;
13941;SDS011;7043;51.630;7.254;2024-03-02T08:13:44;4.47;;;3.50;;
13941;SDS011;7043;51.630;7.254;2024-03-02T08:16:10;3.53;;;3.03;;
13941;SDS011;7043;51.630;7.254;2024-03-02T08:18:36;4.37;;;3.33;;
13941;SDS011;7043;51.630;7.254;2024-03-02T08:21:02;4.63;;;3.20;;
13941;SDS011;7043;51.630;7.254;2024-03-02T08:23:28;3.50;;;3.20;;
13941;SDS011;7043;51.630;7.254;2024-03-02T08:25:55;4.23;;;3.17;;
13941;SDS011;7043;51.630;7.254;2024-03-02T08:28:21;3.50;;;2.57;;
13941;SDS011;7043;51.630;7.254;2024-03-02T08:30:47;4.47;;;3.43;;
13941;SDS011;7043;51.630;7.254;2024-03-02T08:33:13;5.57;;;2.70;;
13941;SDS011;7043;51.630;7.254;2024-03-02T08:35:39;2.50;;;2.30;;
13941;SDS011;7043;51.630;7.254;2024-03-02T08:38:05;3.90;;;2.40;;
13941;SDS011;7043;51.630;7.254;2024-03-02T08:40:31;3.20;;;2.73;;
13941;SDS011;7043;51.630;7.254;2024-03-02T08:42:57;4.00;;;2.63;;
13941;SDS011;7043;51.630;7.254;2024-03-02T08:45:23;2.60;;;2.30;;
13941;SDS011;7043;51.630;7.254;2024-03-02T08:47:49;3.83;;;2.50;;
13941;SDS011;7043;51.630;7.254;2024-03-02T08:50:15;4.60;;;2.60;;
13941;SDS011;7043;51.630;7.254;2024-03-02T08:52:41;2.83;;;2.53;;
13941;SDS011;7043;51.630;7.254;2024-03-02T08:55:08;3.23;;;2.33;;
13941;SDS011;7043;51.630;7.254;2024-03-02T08:57:36;2.13;;;1.93;;
13941;SDS011;7043;51.630;7.254;2024-03-02T09:00:02;2.47;;;2.00;;
13941;SDS011;7043;51.630;7.254;2024-03-02T09:02:30;2.57;;;2.00;;
13941;SDS011;7043;51.630;7.254;2024-03-02T09:04:56;2.57;;;2.10;;
13941;SDS011;7043;51.630;7.254;2024-03-02T09:07:22;2.77;;;2.27;;
13941;SDS011;7043;51.630;7.254;2024-03-02T09:09:48;3.23;;;2.20;;
13941;SDS011;7043;51.630;7.254;2024-03-02T09:12:14;2.27;;;2.07;;
13941;SDS011;7043;51.630;7.254;2024-03-02T09:14:40;3.00;;;1.90;;
13941;SDS011;7043;51.630;7.254;2024-03-02T09:17:07;2.73;;;2.00;;
13941;SDS011;7043;51.630;7.254;2024-03-02T09:19:36;3.10;;;2.20;;
13941;SDS011;7043;51.630;7.254;2024-03-02T09:22:03;2.53;;;1.83;;
13941;SDS011;7043;51.630;7.254;2024-03-02T09:24:30;2.53;;;1.83;;
13941;SDS011;7043;51.630;7.254;2024-03-02T09:26:56;3.00;;;2.00;;
13941;SDS011;7043;51.630;7.254;2024-03-02T09:29:22;4.53;;;2.00;;
13941;SDS011;7043;51.630;7.254;2024-03-02T09:31:48;3.43;;;2.10;;
13941;SDS011;7043;51.630;7.254;2024-03-02T09:34:15;3.37;;;1.90;;
13941;SDS011;7043;51.630;7.254;2024-03-02T09:36:41;3.20;;;1.83;;
13941;SDS011;7043;51.630;7.254;2024-03-02T09:39:07;3.03;;;1.93;;
13941;SDS011;7043;51.630;7.254;2024-03-02T09:41:39;3.83;;;1.83;;
13941;SDS011;7043;51.630;7.254;2024-03-02T09:44:05;1.97;;;1.77;;
13941;SDS011;7043;51.630;7.254;2024-03-02T09:46:31;2.40;;;1.90;;
13941;SDS011;7043;51.630;7.254;2024-03-02T09:48:57;2.03;;;1.83;;
13941;SDS011;7043;51.630;7.254;2024-03-02T09:51:24;2.37;;;1.83;;
13941;SDS011;7043;51.630;7.254;2024-03-02T09:53:50;2.00;;;1.80;;
13941;SDS011;7043;51.630;7.254;2024-03-02T09:56:17;2.57;;;1.90;;
13941;SDS011;7043;51.630;7.254;2024-03-02T09:58:45;2.80;;;1.90;;
13941;SDS011;7043;51.630;7.254;2024-03-02T10:01:11;2.67;;;1.87;;
13941;SDS011;7043;51.630;7.254;2024-03-02T10:03:37;2.13;;;1.73;;
13941;SDS011;7043;51.630;7.254;2024-03-02T10:06:18;2.77;;;1.63;;
13941;SDS011;7043;51.630;7.254;2024-03-02T10:08:44;2.37;;;1.73;;
13941;SDS011;7043;51.630;7.254;2024-03-02T10:11:10;2.43;;;1.57;;
13941;SDS011;7043;51.630;7.254;2024-03-02T10:13:36;2.30;;;1.93;;
13941;SDS011;7043;51.630;7.254;2024-03-02T10:16:11;2.40;;;1.50;;
13941;SDS011;7043;51.630;7.254;2024-03-02T10:18:37;2.47;;;1.60;;
13941;SDS011;7043;51.630;7.254;2024-03-02T10:21:13;2.53;;;1.20;;
13941;SDS011;7043;51.630;7.254;2024-03-02T10:23:40;2.17;;;1.50;;
13941;SDS011;7043;51.630;7.254;2024-03-02T10:26:18;1.90;;;1.70;;
13941;SDS011;7043;51.630;7.254;2024-03-02T10:28:47;1.93;;;1.40;;
13941;SDS011;7043;51.630;7.254;2024-03-02T10:31:13;2.17;;;1.70;;
13941;SDS011;7043;51.630;7.254;2024-03-02T10:33:39;3.53;;;1.43;;
13941;SDS011;7043;51.630;7.254;2024-03-02T10:36:05;2.40;;;1.43;;
13941;SDS011;7043;51.630;7.254;2024-03-02T10:38:31;7.93;;;2.63;;
13941;SDS011;7043;51.630;7.254;2024-03-02T10:40:57;8.03;;;2.10;;
13941;SDS011;7043;51.630;7.254;2024-03-02T10:43:24;19.30;;;4.03;;
13941;SDS011;7043;51.630;7.254;2024-03-02T10:45:51;3.30;;;1.90;;
13941;SDS011;7043;51.630;7.254;2024-03-02T10:48:18;2.70;;;1.77;;
13941;SDS011;7043;51.630;7.254;2024-03-02T10:50:46;2.37;;;1.57;;
13941;SDS011;7043;51.630;7.254;2024-03-02T10:53:12;1.50;;;1.20;;
13941;SDS011;7043;51.630;7.254;2024-03-02T10:55:38;1.67;;;1.20;;
13941;SDS011;7043;51.630;7.254;2024-03-02T10:58:04;2.27;;;1.80;;
13941;SDS011;7043;51.630;7.254;2024-03-02T11:00:33;3.20;;;1.20;;
13941;SDS011;7043;51.630;7.254;2024-03-02T11:03:04;1.80;;;1.50;;
13941;SDS011;7043;51.630;7.254;2024-03-02T11:05:38;1.80;;;1.20;;
13941;SDS011;7043;51.630;7.254;2024-03-02T11:08:08;3.40;;;1.30;;
13941;SDS011;7043;51.630;7.254;2024-03-02T11:10:38;2.13;;;1.53;;
13941;SDS011;7043;51.630;7.254;2024-03-02T11:13:08;1.87;;;1.30;;
13941;SDS011;7043;51.630;7.254;2024-03-02T11:15:35;6.77;;;1.53;;
13941;SDS011;7043;51.630;7.254;2024-03-02T11:18:04;4.63;;;2.03;;
13941;SDS011;7043;51.630;7.254;2024-03-02T11:20:33;1.70;;;1.60;;
13941;SDS011;7043;51.630;7.254;2024-03-02T11:23:04;3.23;;;1.90;;
13941;SDS011;7043;51.630;7.254;2024-03-02T11:25:31;2.30;;;1.77;;
13941;SDS011;7043;51.630;7.254;2024-03-02T11:28:04;4.30;;;2.70;;
13941;SDS011;7043;51.630;7.254;2024-03-02T11:32:59;3.10;;;1.50;;
13941;SDS011;7043;51.630;7.254;2024-03-02T11:35:25;1.90;;;1.40;;
13941;SDS011;7043;51.630;7.254;2024-03-02T11:37:53;3.10;;;1.60;;
13941;SDS011;7043;51.630;7.254;2024-03-02T11:40:23;1.90;;;1.55;;
13941;SDS011;7043;51.630;7.254;2024-03-02T11:42:49;2.67;;;1.43;;
13941;SDS011;7043;51.630;7.254;2024-03-02T11:45:22;3.28;;;2.53;;
13941;SDS011;7043;51.630;7.254;2024-03-02T11:47:52;2.30;;;1.70;;
13941;SDS011;7043;51.630;7.254;2024-03-02T11:53:05;1.80;;;1.70;;
13941;SDS011;7043;51.630;7.254;2024-03-02T11:55:31;3.67;;;2.20;;
13941;SDS011;7043;51.630;7.254;2024-03-02T11:57:59;2.33;;;1.70;;
13941;SDS011;7043;51.630;7.254;2024-03-02T12:00:26;2.35;;;1.70;;
13941;SDS011;7043;51.630;7.254;2024-03-02T12:03:02;2.72;;;2.30;;
13941;SDS011;7043;51.630;7.254;2024-03-02T12:05:29;2.70;;;1.70;;
13941;SDS011;7043;51.630;7.254;2024-03-02T12:07:59;9.88;;;2.60;;
13941;SDS011;7043;51.630;7.254;2024-03-02T12:10:25;3.47;;;1.60;;
13941;SDS011;7043;51.630;7.254;2024-03-02T12:12:58;3.47;;;1.90;;
13941;SDS011;7043;51.630;7.254;2024-03-02T12:15:28;6.93;;;2.03;;
13941;SDS011;7043;51.630;7.254;2024-03-02T12:17:55;2.92;;;1.70;;
13941;SDS011;7043;51.630;7.254;2024-03-02T12:20:21;4.10;;;2.05;;
13941;SDS011;7043;51.630;7.254;2024-03-02T12:22:49;2.22;;;1.90;;
13941;SDS011;7043;51.630;7.254;2024-03-02T12:25:15;2.05;;;1.40;;
13941;SDS011;7043;51.630;7.254;2024-03-02T12:27:42;3.28;;;1.60;;
13941;SDS011;7043;51.630;7.254;2024-03-02T12:30:08;2.05;;;1.60;;
13941;SDS011;7043;51.630;7.254;2024-03-02T12:32:35;3.78;;;1.90;;
13941;SDS011;7043;51.630;7.254;2024-03-02T12:35:03;2.35;;;1.90;;
13941;SDS011;7043;51.630;7.254;2024-03-02T12:37:30;2.87;;;1.67;;
13941;SDS011;7043;51.630;7.254;2024-03-02T12:39:56;3.40;;;1.40;;
13941;SDS011;7043;51.630;7.254;2024-03-02T12:42:23;1.58;;;1.48;;
13941;SDS011;7043;51.630;7.254;2024-03-02T12:44:51;2.15;;;1.92;;
13941;SDS011;7043;51.630;7.254;2024-03-02T12:47:20;2.22;;;1.50;;
13941;SDS011;7043;51.630;7.254;2024-03-02T12:49:46;1.83;;;1.50;;
13941;SDS011;7043;51.630;7.254;2024-03-02T12:52:15;1.48;;;1.23;;
13941;SDS011;7043;51.630;7.254;2024-03-02T12:54:42;1.40;;;1.30;;
13941;SDS011;7043;51.630;7.254;2024-03-02T12:57:08;1.30;;;1.20;;
13941;SDS011;7043;51.630;7.254;2024-03-02T12:59:34;2.20;;;1.47;;
13941;SDS011;7043;51.630;7.254;2024-03-02T13:02:00;1.33;;;1.23;;
13941;SDS011;7043;51.630;7.254;2024-03-02T13:04:28;1.40;;;1.30;;
13941;SDS011;7043;51.630;7.254;2024-03-02T13:06:55;1.80;;;1.50;;
13941;SDS011;7043;51.630;7.254;2024-03-02T13:09:22;2.72;;;1.65;;
13941;SDS011;7043;51.630;7.254;2024-03-02T13:11:48;6.75;;;5.90;;
13941;SDS011;7043;51.630;7.254;2024-03-02T13:14:15;4.70;;;2.15;;
13941;SDS011;7043;51.630;7.254;2024-03-02T13:16:41;2.70;;;2.10;;
13941;SDS011;7043;51.630;7.254;2024-03-02T13:19:08;2.22;;;1.80;;
13941;SDS011;7043;51.630;7.254;2024-03-02T13:21:34;2.15;;;1.40;;
13941;SDS011;7043;51.630;7.254;2024-03-02T13:24:00;1.58;;;1.23;;
13941;SDS011;7043;51.630;7.254;2024-03-02T13:26:26;1.52;;;1.30;;
13941;SDS011;7043;51.630;7.254;2024-03-02T13:28:52;1.73;;;1.38;;
13941;SDS011;7043;51.630;7.254;2024-03-02T13:31:18;1.63;;;1.20;;
13941;SDS011;7043;51.630;7.254;2024-03-02T13:33:44;2.42;;;1.63;;
13941;SDS011;7043;51.630;7.254;2024-03-02T13:36:10;1.90;;;1.70;;
13941;SDS011;7043;51.630;7.254;2024-03-02T13:38:36;1.45;;;1.35;;
13941;SDS011;7043;51.630;7.254;2024-03-02T13:41:02;2.15;;;1.30;;
13941;SDS011;7043;51.630;7.254;2024-03-02T13:43:28;1.60;;;1.40;;
13941;SDS011;7043;51.630;7.254;2024-03-02T13:45:59;1.52;;;1.20;;
13941;SDS011;7043;51.630;7.254;2024-03-02T13:48:25;1.85;;;1.30;;
13941;SDS011;7043;51.630;7.254;2024-03-02T13:50:52;1.75;;;1.20;;
13941;SDS011;7043;51.630;7.254;2024-03-02T13:53:18;1.80;;;1.20;;
13941;SDS011;7043;51.630;7.254;2024-03-02T13:55:44;1.08;;;0.98;;
13941;SDS011;7043;51.630;7.254;2024-03-02T13:58:10;1.65;;;1.30;;
13941;SDS011;7043;51.630;7.254;2024-03-02T14:00:37;1.38;;;1.00;;
13941;SDS011;7043;51.630;7.254;2024-03-02T14:03:06;1.37;;;1.10;;
13941;SDS011;7043;51.630;7.254;2024-03-02T14:05:32;1.27;;;1.10;;
13941;SDS011;7043;51.630;7.254;2024-03-02T14:07:58;1.20;;;1.10;;
13941;SDS011;7043;51.630;7.254;2024-03-02T14:10:25;1.17;;;1.02;;
13941;SDS011;7043;51.630;7.254;2024-03-02T14:12:52;1.55;;;1.30;;
13941;SDS011;7043;51.630;7.254;2024-03-02T14:15:18;1.58;;;1.10;;
13941;SDS011;7043;51.630;7.254;2024-03-02T14:17:44;1.65;;;1.55;;
13941;SDS011;7043;51.630;7.254;2024-03-02T14:20:10;1.77;;;1.23;;
13941;SDS011;7043;51.630;7.254;2024-03-02T14:22:38;1.10;;;0.97;;
13941;SDS011;7043;51.630;7.254;2024-03-02T14:25:04;0.98;;;0.90;;
13941;SDS011;7043;51.630;7.254;2024-03-02T14:27:30;1.10;;;1.00;;
13941;SDS011;7043;51.630;7.254;2024-03-02T14:29:56;1.25;;;1.15;;
13941;SDS011;7043;51.630;7.254;2024-03-02T14:32:22;1.00;;;0.95;;
13941;SDS011;7043;51.630;7.254;2024-03-02T14:34:48;1.15;;;0.93;;
13941;SDS011;7043;51.630;7.254;2024-03-02T14:37:17;1.48;;;0.95;;
13941;SDS011;7043;51.630;7.254;2024-03-02T14:39:43;1.10;;;1.00;;
13941;SDS011;7043;51.630;7.254;2024-03-02T14:42:09;1.40;;;0.85;;
13941;SDS011;7043;51.630;7.254;2024-03-02T14:44:35;1.58;;;1.30;;
13941;SDS011;7043;51.630;7.254;2024-03-02T14:47:01;1.55;;;1.15;;
13941;SDS011;7043;51.630;7.254;2024-03-02T14:49:29;1.38;;;0.98;;
13941;SDS011;7043;51.630;7.254;2024-03-02T14:51:55;2.08;;;1.08;;
13941;SDS011;7043;51.630;7.254;2024-03-02T14:54:21;1.65;;;0.95;;
13941;SDS011;7043;51.630;7.254;2024-03-02T14:56:47;0.80;;;0.80;;
13941;SDS011;7043;51.630;7.254;2024-03-02T14:59:14;0.97;;;0.97;;
13941;SDS011;7043;51.630;7.254;2024-03-02T15:01:40;1.10;;;0.90;;
13941;SDS011;7043;51.630;7.254;2024-03-02T15:04:06;1.13;;;1.00;;